Time;durP1;ratioP1;P1;durP2;ratioP2;P2;SDS_P1;SDS_P2;PMS_P1;PMS_P2;Temp;Humidity;BMP_temperature;BMP_pressure;BME280_temperature;BME280_humidity;BME280_pressure;Samples;Min_cycle;Max_cycle;Signal;HPM_P1;HPM_P2
2024/04/18 00:01:59;;;;;;;2.78;2.13;;;4.70;99.90;;;;;;5405404;26;20341;-90
2024/04/18 00:04:27;;;;;;;2.20;2.00;;;4.70;99.90;;;;;;5390647;26;20070;-90
2024/04/18 00:06:54;;;;;;;2.45;1.80;;;4.60;99.90;;;;;;5411394;26;20015;-90
2024/04/18 00:09:21;;;;;;;4.13;1.80;;;4.60;99.90;;;;;;5421316;26;19998;-90
2024/04/18 00:11:49;;;;;;;1.70;1.60;;;4.50;99.90;;;;;;5418023;26;20011;-90
2024/04/18 00:14:16;;;;;;;3.30;2.10;;;4.50;99.90;;;;;;5385585;26;20004;-90
2024/04/18 00:16:43;;;;;;;2.88;2.15;;;4.50;99.90;;;;;;5399377;26;20007;-90
2024/04/18 00:19:10;;;;;;;2.30;2.00;;;4.40;99.90;;;;;;5414148;26;20315;-90
2024/04/18 00:21:37;;;;;;;2.50;2.30;;;4.40;99.90;;;;;;5406412;26;20016;-90
2024/04/18 00:24:07;;;;;;;4.28;2.13;;;4.40;99.90;;;;;;5385930;26;20011;-89
2024/04/18 00:26:36;;;;;;;3.20;2.55;;;4.40;99.90;;;;;;5401534;26;19995;-90
2024/04/18 00:29:03;;;;;;;2.88;2.60;;;4.40;99.90;;;;;;5411346;26;20011;-89
2024/04/18 00:31:30;;;;;;;2.50;2.30;;;4.40;99.90;;;;;;5385137;26;20008;-90
2024/04/18 00:33:57;;;;;;;2.60;2.40;;;4.40;99.90;;;;;;5405102;26;20580;-91
2024/04/18 00:36:27;;;;;;;4.90;2.42;;;4.50;99.90;;;;;;5396883;26;20450;-91
2024/04/18 00:38:54;;;;;;;2.63;2.42;;;4.50;99.90;;;;;;5413974;26;19995;-89
2024/04/18 00:41:21;;;;;;;2.55;2.30;;;4.50;99.90;;;;;;5413467;26;20014;-89
2024/04/18 00:43:51;;;;;;;3.15;2.80;;;4.50;99.90;;;;;;5414412;26;20009;-90
2024/04/18 00:46:19;;;;;;;2.38;2.17;;;4.50;99.90;;;;;;5423828;26;20370;-90
2024/04/18 00:48:49;;;;;;;3.67;2.40;;;4.60;99.90;;;;;;5388872;26;20450;-89
2024/04/18 00:51:16;;;;;;;3.00;2.75;;;4.60;99.90;;;;;;5409062;26;20020;-90
2024/04/18 00:53:46;;;;;;;2.53;2.33;;;4.60;99.90;;;;;;5395062;26;20012;-90
2024/04/18 00:56:17;;;;;;;2.63;2.42;;;4.60;99.90;;;;;;5414942;26;20000;-89
2024/04/18 00:58:44;;;;;;;2.22;2.00;;;4.60;99.90;;;;;;5414933;26;20015;-89
2024/04/18 01:01:12;;;;;;;2.17;2.08;;;4.60;99.90;;;;;;5414743;26;20521;-89
2024/04/18 01:03:39;;;;;;;2.58;2.35;;;4.70;99.90;;;;;;5384253;26;19996;-88
2024/04/18 01:06:09;;;;;;;2.53;2.33;;;4.70;99.90;;;;;;5395680;26;20047;-90
2024/04/18 01:08:39;;;;;;;4.18;2.50;;;4.70;99.90;;;;;;5418673;26;20004;-90
2024/04/18 01:11:09;;;;;;;2.75;2.55;;;4.70;99.90;;;;;;5384710;26;19993;-89
2024/04/18 01:13:38;;;;;;;3.17;2.90;;;4.60;99.90;;;;;;5384890;26;20038;-89
2024/04/18 01:16:07;;;;;;;2.92;2.72;;;4.70;99.90;;;;;;5409997;26;20007;-90
2024/04/18 01:18:37;;;;;;;2.63;2.42;;;4.70;99.90;;;;;;5420438;26;20011;-91
2024/04/18 01:21:04;;;;;;;3.17;2.88;;;4.70;99.90;;;;;;5406598;26;20006;-90
2024/04/18 01:23:34;;;;;;;3.33;3.03;;;4.70;99.90;;;;;;5414127;26;20004;-90
2024/04/18 01:26:01;;;;;;;3.53;2.88;;;4.70;99.90;;;;;;5385842;26;20008;-89
2024/04/18 01:28:28;;;;;;;4.40;3.00;;;4.70;99.90;;;;;;5408978;26;20012;-88
2024/04/18 01:30:57;;;;;;;2.50;2.30;;;4.80;99.90;;;;;;5384296;26;20000;-88
2024/04/18 01:33:24;;;;;;;3.17;2.97;;;4.80;99.90;;;;;;5406203;26;19996;-90
2024/04/18 01:35:54;;;;;;;3.75;3.15;;;4.80;99.90;;;;;;5405886;26;20011;-89
2024/04/18 01:38:21;;;;;;;4.03;3.40;;;4.80;99.90;;;;;;5395519;26;20030;-89
2024/04/18 01:40:48;;;;;;;3.70;3.40;;;4.80;99.90;;;;;;5404041;26;20068;-89
2024/04/18 01:43:19;;;;;;;3.40;3.10;;;4.90;99.90;;;;;;5414390;26;20003;-92
2024/04/18 01:45:46;;;;;;;3.38;3.00;;;4.90;99.90;;;;;;5420415;26;20068;-93
2024/04/18 01:48:13;;;;;;;3.83;3.20;;;4.90;99.90;;;;;;5393976;26;19999;-91
2024/04/18 01:50:40;;;;;;;5.13;3.60;;;4.90;99.90;;;;;;5421659;26;20000;-94
2024/04/18 01:53:10;;;;;;;4.40;3.72;;;5.00;99.90;;;;;;5409152;26;20016;-95
2024/04/18 01:55:37;;;;;;;3.42;3.13;;;5.00;99.90;;;;;;5397946;26;20009;-92
2024/04/18 01:58:04;;;;;;;3.40;3.10;;;5.00;99.90;;;;;;5403216;26;20011;-92
2024/04/18 02:00:31;;;;;;;6.45;3.30;;;5.00;99.90;;;;;;5413926;26;20007;-94
2024/04/18 02:02:59;;;;;;;3.97;3.25;;;5.00;99.90;;;;;;5421561;26;20045;-93
2024/04/18 02:05:26;;;;;;;3.53;3.22;;;5.00;99.90;;;;;;5420295;26;20000;-93
2024/04/18 02:07:55;;;;;;;5.13;3.85;;;5.00;99.90;;;;;;5384769;26;20012;-93
2024/04/18 02:10:22;;;;;;;4.88;4.30;;;5.00;99.90;;;;;;5383313;26;20004;-93
2024/04/18 02:12:49;;;;;;;5.50;4.30;;;5.00;99.90;;;;;;5387016;26;20331;-93
2024/04/18 02:15:16;;;;;;;5.07;3.80;;;5.10;99.90;;;;;;5413175;26;19995;-93
2024/04/18 02:17:43;;;;;;;4.32;3.97;;;5.10;99.90;;;;;;5392502;26;20013;-92
2024/04/18 02:20:15;;;;;;;4.50;4.10;;;5.10;99.90;;;;;;5414439;26;20370;-93
2024/04/18 02:22:42;;;;;;;4.32;3.92;;;5.20;99.90;;;;;;5412311;26;20006;-93
2024/04/18 02:25:12;;;;;;;3.97;3.58;;;5.20;99.90;;;;;;5416731;26;20012;-93
2024/04/18 02:27:41;;;;;;;4.38;3.42;;;5.20;99.90;;;;;;5412882;26;20010;-93
2024/04/18 02:30:10;;;;;;;3.92;3.63;;;5.20;99.90;;;;;;5410933;26;20004;-93
2024/04/18 02:32:38;;;;;;;5.00;4.05;;;5.20;99.90;;;;;;5382856;26;20011;-93
2024/04/18 02:35:07;;;;;;;4.05;3.65;;;5.30;99.90;;;;;;5403182;26;20011;-92
2024/04/18 02:37:34;;;;;;;4.70;3.90;;;5.30;99.90;;;;;;5412529;26;19996;-93
2024/04/18 02:40:04;;;;;;;5.85;3.53;;;5.30;99.90;;;;;;5382590;26;20011;-92
2024/04/18 02:42:34;;;;;;;3.80;3.47;;;5.30;99.90;;;;;;5384085;26;20004;-93
2024/04/18 02:45:01;;;;;;;4.50;4.10;;;5.30;99.90;;;;;;5412381;26;19992;-92
2024/04/18 02:47:28;;;;;;;4.40;3.83;;;5.30;99.90;;;;;;5410010;26;20012;-92
2024/04/18 02:49:57;;;;;;;4.47;3.92;;;5.30;99.90;;;;;;5402452;26;19996;-92
2024/04/18 02:52:24;;;;;;;6.80;4.43;;;5.30;99.90;;;;;;5409692;26;20007;-92
2024/04/18 02:54:51;;;;;;;5.05;3.85;;;5.30;99.90;;;;;;5402124;26;20524;-90
2024/04/18 02:57:18;;;;;;;4.72;4.10;;;5.30;99.90;;;;;;5382451;26;19996;-88
2024/04/18 02:59:46;;;;;;;5.18;4.40;;;5.30;99.90;;;;;;5383854;26;20358;-89
2024/04/18 03:02:15;;;;;;;5.05;3.92;;;5.30;99.90;;;;;;5397649;26;20007;-89
2024/04/18 03:04:42;;;;;;;5.82;4.65;;;5.30;99.90;;;;;;5382740;26;20011;-89
2024/04/18 03:07:09;;;;;;;5.35;4.80;;;5.30;99.90;;;;;;5402061;26;20400;-89
2024/04/18 03:09:36;;;;;;;4.85;4.40;;;5.30;99.90;;;;;;5391998;26;20061;-89
2024/04/18 03:12:06;;;;;;;4.40;4.00;;;5.30;99.90;;;;;;5390039;26;20446;-90
2024/04/18 03:14:38;;;;;;;6.32;4.60;;;5.30;99.90;;;;;;5410917;26;20006;-89
2024/04/18 03:17:06;;;;;;;5.05;4.50;;;5.30;99.90;;;;;;5391498;26;20000;-89
2024/04/18 03:19:33;;;;;;;5.63;4.53;;;5.30;99.90;;;;;;5415684;26;20011;-90
2024/04/18 03:22:00;;;;;;;4.82;4.38;;;5.30;99.90;;;;;;5384680;26;20007;-90
2024/04/18 03:24:27;;;;;;;5.10;4.47;;;5.20;99.90;;;;;;5384242;26;20000;-90
2024/04/18 03:26:54;;;;;;;5.18;4.53;;;5.20;99.90;;;;;;5387435;26;20354;-89
2024/04/18 03:29:21;;;;;;;5.22;4.72;;;5.20;99.90;;;;;;5409321;26;20378;-90
2024/04/18 03:31:50;;;;;;;5.90;5.15;;;5.30;99.90;;;;;;5417638;26;20407;-90
2024/04/18 03:34:20;;;;;;;6.05;4.80;;;5.20;99.90;;;;;;5397804;26;20004;-90
2024/04/18 03:36:52;;;;;;;6.03;4.82;;;5.20;99.90;;;;;;5407993;26;20024;-90
2024/04/18 03:39:20;;;;;;;5.07;4.55;;;5.30;99.90;;;;;;5402408;26;20029;-89
2024/04/18 03:41:47;;;;;;;4.82;4.32;;;5.30;99.90;;;;;;5412920;26;20035;-90
2024/04/18 03:44:15;;;;;;;5.45;4.68;;;5.30;99.90;;;;;;5412662;26;20005;-91
2024/04/18 03:46:42;;;;;;;5.43;4.70;;;5.20;99.90;;;;;;5387409;26;20082;-90
2024/04/18 03:49:09;;;;;;;5.45;4.78;;;5.20;99.90;;;;;;5405781;26;20449;-90
2024/04/18 03:51:36;;;;;;;6.50;4.65;;;5.20;99.90;;;;;;5410379;26;20053;-90
2024/04/18 03:54:05;;;;;;;5.05;4.40;;;5.20;99.90;;;;;;5417122;26;20353;-90
2024/04/18 03:56:33;;;;;;;5.30;4.80;;;5.20;99.90;;;;;;5417011;26;20036;-89
2024/04/18 03:59:01;;;;;;;5.88;5.13;;;5.20;99.90;;;;;;5392755;26;20027;-89
2024/04/18 04:01:29;;;;;;;6.03;5.30;;;5.20;99.90;;;;;;5413980;26;20007;-88
2024/04/18 04:03:59;;;;;;;7.88;5.55;;;5.20;99.90;;;;;;5416986;26;19999;-90
2024/04/18 04:06:26;;;;;;;6.18;5.32;;;5.20;99.90;;;;;;5396811;26;19996;-93
2024/04/18 04:08:53;;;;;;;6.88;5.38;;;5.20;99.90;;;;;;5413673;26;20400;-94
2024/04/18 04:11:20;;;;;;;7.05;6.03;;;5.20;99.90;;;;;;5402514;26;19996;-93
2024/04/18 04:13:48;;;;;;;7.15;6.00;;;5.20;99.90;;;;;;5412382;26;20162;-93
2024/04/18 04:16:15;;;;;;;6.45;5.80;;;5.20;99.90;;;;;;5403346;26;20035;-94
2024/04/18 04:18:45;;;;;;;7.75;6.90;;;5.20;99.90;;;;;;5407914;26;20532;-93
2024/04/18 04:21:15;;;;;;;6.70;6.00;;;5.20;99.90;;;;;;5381243;26;19997;-95
2024/04/18 04:23:45;;;;;;;7.38;6.28;;;5.20;99.90;;;;;;5397957;26;20011;-93
2024/04/18 04:26:12;;;;;;;7.70;6.40;;;5.10;99.90;;;;;;5416316;26;20007;-94
2024/04/18 04:28:41;;;;;;;74.43;27.17;;;5.10;99.90;;;;;;5416564;26;20077;-94
2024/04/18 04:31:10;;;;;;;14.73;9.52;;;5.00;99.90;;;;;;5416583;26;20069;-94
2024/04/18 04:33:40;;;;;;;7.50;5.68;;;5.00;99.90;;;;;;5416719;26;19991;-94
2024/04/18 04:36:07;;;;;;;7.13;6.43;;;5.00;99.90;;;;;;5397658;26;19996;-95
2024/04/18 04:38:34;;;;;;;6.65;5.72;;;5.00;99.90;;;;;;5410901;26;20012;-95
2024/04/18 04:41:01;;;;;;;6.82;6.05;;;5.00;99.90;;;;;;5413925;26;19992;-94
2024/04/18 04:43:28;;;;;;;5.97;5.07;;;5.00;99.90;;;;;;5387284;26;20443;-94
2024/04/18 04:45:55;;;;;;;6.13;5.22;;;5.00;99.90;;;;;;5425606;26;20000;-94
2024/04/18 04:48:22;;;;;;;5.25;4.00;;;5.00;99.90;;;;;;5420013;26;19999;-95
2024/04/18 04:51:00;;;;;;;5.13;4.55;;;4.90;99.90;;;;;;5384653;26;20003;-94
2024/04/18 04:53:27;;;;;;;3.97;3.58;;;4.90;99.90;;;;;;5389137;26;20024;-94
2024/04/18 04:56:24;;;;;;;4.38;3.88;;;4.90;99.90;;;;;;5419593;26;20011;-95
2024/04/18 04:58:51;;;;;;;5.90;4.70;;;4.80;99.90;;;;;;5419820;26;20069;-94
2024/04/18 05:01:20;;;;;;;13.57;8.52;;;4.80;99.90;;;;;;5398395;26;20141;-94
2024/04/18 05:03:48;;;;;;;10.90;7.05;;;4.80;99.90;;;;;;5399171;26;20004;-95
2024/04/18 05:06:15;;;;;;;8.32;6.28;;;4.80;99.90;;;;;;5394510;26;20386;-95
2024/04/18 05:08:44;;;;;;;9.27;6.97;;;4.70;99.90;;;;;;5409683;26;19996;-95
2024/04/18 05:11:12;;;;;;;8.65;7.43;;;4.70;99.90;;;;;;5419545;26;20069;-95
2024/04/18 05:13:39;;;;;;;7.93;7.10;;;4.70;99.90;;;;;;5420177;26;19992;-95
2024/04/18 05:16:06;;;;;;;11.25;7.80;;;4.80;99.90;;;;;;5401806;26;20076;-95
2024/04/18 05:18:34;;;;;;;8.60;7.53;;;4.70;99.90;;;;;;5419952;26;20473;-96
2024/04/18 05:21:01;;;;;;;6.93;6.22;;;4.80;99.90;;;;;;5419857;26;20004;-93
2024/04/18 05:23:28;;;;;;;5.88;5.28;;;4.80;99.90;;;;;;5411351;26;20093;-94
2024/04/18 05:25:57;;;;;;;7.80;6.20;;;4.80;99.90;;;;;;5414697;26;20019;-94
2024/04/18 05:28:40;;;;;;;6.20;4.93;;;4.80;99.90;;;;;;5385559;26;20015;-90
2024/04/18 05:31:08;;;;;;;5.40;4.63;;;4.80;99.90;;;;;;5412949;26;20322;-90
2024/04/18 05:33:35;;;;;;;6.72;5.40;;;;;;;;;;5387243;26;20010;-90
2024/04/18 05:36:04;;;;;;;5.13;4.63;;;4.60;99.90;;;;;;5392640;26;19999;-90
2024/04/18 05:38:33;;;;;;;6.20;5.60;;;4.60;99.90;;;;;;5410595;26;20008;-90
2024/04/18 05:41:11;;;;;;;13.30;8.77;;;4.50;99.90;;;;;;5384445;26;20004;-90
2024/04/18 05:43:42;;;;;;;9.98;6.90;;;4.40;99.90;;;;;;5395635;26;20012;-78
2024/04/18 05:46:09;;;;;;;9.10;6.82;;;4.30;99.90;;;;;;5360692;26;20022;-79
2024/04/18 05:48:36;;;;;;;7.32;6.47;;;4.20;99.90;;;;;;5360053;26;20000;-78
2024/04/18 05:51:03;;;;;;;7.15;5.70;;;4.20;99.90;;;;;;5399809;26;20004;-79
2024/04/18 05:53:30;;;;;;;6.45;4.47;;;4.20;99.90;;;;;;5393171;26;20019;-78
2024/04/18 05:55:57;;;;;;;5.88;5.00;;;4.20;99.90;;;;;;5366988;26;20399;-79
2024/04/18 05:58:24;;;;;;;6.05;4.65;;;4.10;99.90;;;;;;5399631;26;20383;-79
2024/04/18 06:00:51;;;;;;;7.13;4.80;;;4.10;99.90;;;;;;5379248;26;20008;-79
2024/04/18 06:03:19;;;;;;;6.60;5.53;;;4.10;99.90;;;;;;5378627;26;20070;-79
2024/04/18 06:05:46;;;;;;;5.63;4.90;;;4.00;99.90;;;;;;5405025;26;20014;-79
2024/04/18 06:08:13;;;;;;;5.78;4.78;;;4.00;99.90;;;;;;5376292;26;20070;-79
2024/04/18 06:10:45;;;;;;;5.45;4.38;;;3.80;99.90;;;;;;5405265;26;20007;-79
2024/04/18 06:13:12;;;;;;;6.05;5.30;;;3.80;99.90;;;;;;5350395;26;20354;-78
2024/04/18 06:15:45;;;;;;;7.13;5.50;;;3.90;99.90;;;;;;5321571;26;20075;-79
2024/04/18 06:18:12;;;;;;;7.15;6.05;;;3.90;99.90;;;;;;5341853;26;20000;-79
2024/04/18 06:20:53;;;;;;;9.82;5.97;;;3.90;99.90;;;;;;5355193;26;20008;-79
2024/04/18 06:23:20;;;;;;;10.13;6.35;;;3.90;99.90;;;;;;5339123;26;20372;-79
2024/04/18 06:25:47;;;;;;;7.15;5.80;;;4.00;99.90;;;;;;5344858;26;20005;-79
2024/04/18 06:28:14;;;;;;;8.65;6.45;;;4.10;99.90;;;;;;5346730;26;20004;-79
2024/04/18 06:30:42;;;;;;;11.02;6.38;;;4.20;99.90;;;;;;5341496;26;20436;-77
2024/04/18 06:33:09;;;;;;;8.25;6.70;;;4.30;99.90;;;;;;5330171;26;19996;-77
2024/04/18 06:35:36;;;;;;;8.05;6.63;;;4.40;99.90;;;;;;5328245;26;20076;-77
2024/04/18 06:38:03;;;;;;;8.68;6.75;;;4.40;99.90;;;;;;5334936;26;20082;-78
2024/04/18 06:40:30;;;;;;;8.77;6.53;;;4.50;99.90;;;;;;5336637;26;20078;-77
2024/04/18 06:42:57;;;;;;;8.27;6.57;;;4.60;99.90;;;;;;5336906;26;20075;-77
2024/04/18 06:45:24;;;;;;;8.00;5.95;;;4.60;99.90;;;;;;5329531;26;20004;-77
2024/04/18 06:47:52;;;;;;;8.48;6.95;;;4.70;99.90;;;;;;5366039;26;20004;-77
2024/04/18 06:50:19;;;;;;;7.93;6.40;;;4.70;99.90;;;;;;5358975;26;20000;-77
2024/04/18 06:52:52;;;;;;;11.95;7.15;;;4.80;99.90;;;;;;5375134;26;20350;-77
2024/04/18 06:55:19;;;;;;;9.43;6.85;;;4.90;99.90;;;;;;5378681;26;20077;-77
2024/04/18 06:57:45;;;;;;;12.43;8.95;;;5.00;99.90;;;;;;5319058;26;20004;-78
2024/04/18 07:00:38;;;;;;;17.67;10.32;;;5.10;99.90;;;;;;5317096;26;20259;-78
2024/04/18 07:03:11;;;;;;;13.52;9.35;;;5.10;99.90;;;;;;5319134;26;20309;-78
2024/04/18 07:05:39;;;;;;;13.38;9.13;;;5.20;99.90;;;;;;5346554;26;20000;-77
2024/04/18 07:08:06;;;;;;;14.57;10.30;;;5.30;99.90;;;;;;5323736;26;20013;-78
2024/04/18 07:10:36;;;;;;;14.02;9.32;;;5.40;99.90;;;;;;5357640;26;20001;-77
2024/04/18 07:13:03;;;;;;;11.98;9.27;;;5.50;99.90;;;;;;5348138;26;20005;-77
2024/04/18 07:15:30;;;;;;;14.88;9.75;;;5.50;99.90;;;;;;5359581;26;19997;-77
2024/04/18 07:17:57;;;;;;;15.52;9.70;;;5.50;99.90;;;;;;5361453;26;19996;-77
2024/04/18 07:20:24;;;;;;;16.05;9.93;;;5.50;99.90;;;;;;5364789;26;20000;-78
2024/04/18 07:22:53;;;;;;;13.73;9.63;;;5.60;99.90;;;;;;5367946;26;20001;-77
2024/04/18 07:25:20;;;;;;;14.85;9.30;;;5.60;99.90;;;;;;5367881;26;20000;-78
2024/04/18 07:27:48;;;;;;;14.02;9.68;;;5.70;99.90;;;;;;5327992;26;20005;-78
2024/04/18 07:30:15;;;;;;;14.52;9.48;;;5.80;99.90;;;;;;5322162;26;20009;-78
2024/04/18 07:32:45;;;;;;;15.32;10.40;;;5.90;99.90;;;;;;5345535;26;20020;-78
2024/04/18 07:35:12;;;;;;;15.80;10.38;;;6.00;99.90;;;;;;5346173;26;20479;-79
2024/04/18 07:37:39;;;;;;;13.82;10.38;;;6.10;99.90;;;;;;5346811;26;19997;-78
2024/04/18 07:40:18;;;;;;;14.57;8.98;;;6.20;99.90;;;;;;5324426;26;20078;-78
2024/04/18 07:42:50;;;;;;;15.30;10.70;;;6.20;99.90;;;;;;5339461;26;20379;-78
2024/04/18 07:45:17;;;;;;;14.13;9.85;;;6.30;99.90;;;;;;5352149;26;20378;-78
2024/04/18 07:47:45;;;;;;;16.42;10.27;;;6.40;99.90;;;;;;5324580;26;20365;-78
2024/04/18 07:50:12;;;;;;;14.57;10.75;;;6.40;99.90;;;;;;5346694;26;20445;-78
2024/04/18 07:52:39;;;;;;;17.17;12.32;;;6.40;99.90;;;;;;5346863;26;20359;-78
2024/04/18 07:55:15;;;;;;;16.60;12.68;;;6.50;99.90;;;;;;5363773;26;20000;-78
2024/04/18 07:57:42;;;;;;;15.85;11.93;;;6.50;99.90;;;;;;5371914;26;20008;-78
2024/04/18 08:00:10;;;;;;;15.77;12.05;;;6.60;99.90;;;;;;5329201;26;20074;-77
2024/04/18 08:02:38;;;;;;;19.27;12.65;;;6.60;99.90;;;;;;5357865;26;20001;-78
2024/04/18 08:05:11;;;;;;;17.25;11.95;;;6.60;99.90;;;;;;5347074;26;20001;-77
2024/04/18 08:07:41;;;;;;;17.40;11.95;;;6.70;99.90;;;;;;5372755;26;20401;-78
2024/04/18 08:10:13;;;;;;;14.98;11.07;;;6.70;99.90;;;;;;5348793;26;20273;-78
2024/04/18 08:12:45;;;;;;;17.85;11.70;;;6.80;99.90;;;;;;5355660;26;20024;-78
2024/04/18 08:15:19;;;;;;;17.73;11.65;;;6.90;99.90;;;;;;5320586;26;20047;-78
2024/04/18 08:17:52;;;;;;;15.38;11.68;;;6.80;99.90;;;;;;5348833;26;20001;-78
2024/04/18 08:20:19;;;;;;;16.67;12.48;;;6.80;99.90;;;;;;5352320;26;20298;-78
2024/04/18 08:22:46;;;;;;;18.42;12.45;;;6.90;99.90;;;;;;5354506;26;20004;-77
2024/04/18 08:25:16;;;;;;;18.60;14.00;;;6.90;99.90;;;;;;5372023;26;20000;-78
2024/04/18 08:27:45;;;;;;;20.52;13.18;;;6.90;99.90;;;;;;5353130;26;20467;-77
2024/04/18 08:30:12;;;;;;;21.10;13.65;;;7.00;99.90;;;;;;5360584;26;20012;-78
2024/04/18 08:32:39;;;;;;;18.92;13.80;;;7.00;99.90;;;;;;5363247;26;20048;-78
2024/04/18 08:35:06;;;;;;;18.17;12.65;;;7.00;99.90;;;;;;5365530;26;20007;-79
2024/04/18 08:37:33;;;;;;;20.23;13.75;;;7.00;99.90;;;;;;5362682;26;20011;-78
2024/04/18 08:40:00;;;;;;;20.40;13.90;;;7.00;99.90;;;;;;5358977;26;19997;-78
2024/04/18 08:42:29;;;;;;;20.85;14.73;;;7.00;99.90;;;;;;5358196;26;20059;-78
2024/04/18 08:44:56;;;;;;;20.05;14.45;;;7.00;99.90;;;;;;5344618;26;20028;-78
2024/04/18 08:47:26;;;;;;;20.20;14.75;;;7.10;99.90;;;;;;5352770;26;20012;-78
2024/04/18 08:49:54;;;;;;;20.35;13.80;;;7.10;99.90;;;;;;5356227;26;19997;-78
2024/04/18 08:52:21;;;;;;;19.35;12.93;;;7.10;99.90;;;;;;5347573;26;20033;-78
2024/04/18 08:54:48;;;;;;;22.15;13.70;;;7.10;99.90;;;;;;5347705;26;20357;-78
2024/04/18 08:57:21;;;;;;;20.67;14.20;;;7.00;99.90;;;;;;5350958;26;20001;-78
2024/04/18 08:59:51;;;;;;;19.05;13.77;;;7.00;99.90;;;;;;5356297;26;20024;-78
2024/04/18 09:02:19;;;;;;;15.27;11.50;;;7.00;99.90;;;;;;5353680;26;20011;-78
2024/04/18 09:04:47;;;;;;;16.33;10.40;;;6.90;99.90;;;;;;5358394;26;20001;-78
2024/04/18 09:07:14;;;;;;;16.13;11.07;;;6.80;99.90;;;;;;5360441;26;20071;-78
2024/04/18 09:09:41;;;;;;;15.48;10.30;;;6.60;99.90;;;;;;5363619;26;20342;-78
2024/04/18 09:12:08;;;;;;;13.82;9.57;;;6.60;99.90;;;;;;5334145;26;19996;-78
2024/04/18 09:14:36;;;;;;;14.60;10.15;;;6.60;99.90;;;;;;5364232;26;20305;-78
2024/04/18 09:17:13;;;;;;;17.70;11.15;;;6.60;99.90;;;;;;5367429;26;20297;-78
2024/04/18 09:19:40;;;;;;;15.38;10.73;;;6.60;99.90;;;;;;5351515;26;20008;-78
2024/04/18 09:22:07;;;;;;;15.70;10.70;;;6.60;99.90;;;;;;5356738;26;20013;-78
2024/04/18 09:24:37;;;;;;;14.75;10.75;;;6.60;99.90;;;;;;5361182;26;20005;-78
2024/04/18 09:27:04;;;;;;;16.45;10.57;;;6.50;99.90;;;;;;5349823;26;19997;-78
2024/04/18 09:29:31;;;;;;;15.82;11.18;;;6.60;99.90;;;;;;5330316;26;20005;-78
2024/04/18 09:32:00;;;;;;;17.50;11.82;;;6.60;99.90;;;;;;5348503;26;20026;-78
2024/04/18 09:34:30;;;;;;;7.65;5.93;;;6.60;99.90;;;;;;5351261;26;20067;-78
2024/04/18 09:37:04;;;;;;;5.10;4.35;;;6.60;99.90;;;;;;5322734;26;20103;-78
2024/04/18 09:39:32;;;;;;;;;;;6.60;99.90;;;;;;5350487;26;20000;-78
2024/04/18 09:42:20;;;;;;;5.85;4.32;;;6.50;99.90;;;;;;5348415;26;19925;-78
2024/04/18 09:44:53;;;;;;;6.78;4.82;;;6.40;99.90;;;;;;5351168;26;20020;-78
2024/04/18 09:47:22;;;;;;;5.72;4.82;;;6.30;99.90;;;;;;5364594;26;20009;-78
2024/04/18 09:49:50;;;;;;;7.28;4.90;;;6.20;99.90;;;;;;5348732;26;20071;-78
2024/04/18 09:52:20;;;;;;;5.80;4.70;;;6.10;99.90;;;;;;5364943;26;20048;-78
2024/04/18 09:54:49;;;;;;;5.82;4.72;;;6.00;99.90;;;;;;5368226;26;19992;-78
2024/04/18 09:57:19;;;;;;;9.10;5.28;;;5.90;99.90;;;;;;5327030;26;20011;-79
2024/04/18 09:59:48;;;;;;;7.90;4.72;;;5.90;99.90;;;;;;5330159;26;20009;-78
2024/04/18 10:02:21;;;;;;;8.00;5.68;;;5.80;99.90;;;;;;5353350;26;19997;-78
2024/04/18 10:04:49;;;;;;;7.85;4.82;;;5.70;99.90;;;;;;5320405;26;20373;-78
2024/04/18 10:07:18;;;;;;;6.65;5.05;;;5.60;99.90;;;;;;5380914;26;20008;-78
2024/04/18 10:09:47;;;;;;;8.13;5.32;;;5.60;99.90;;;;;;5346595;26;19996;-78
2024/04/18 10:12:14;;;;;;;7.35;4.90;;;5.40;99.90;;;;;;5319679;26;20353;-78
2024/04/18 10:14:41;;;;;;;6.22;5.32;;;5.40;99.90;;;;;;5324979;26;20016;-79
2024/04/18 10:17:24;;;;;;;6.82;5.43;;;5.30;99.90;;;;;;5375192;26;19997;-78
2024/04/18 10:19:52;;;;;;;7.70;5.63;;;5.30;99.90;;;;;;5362509;26;20011;-79
2024/04/18 10:22:23;;;;;;;7.78;5.22;;;5.30;99.90;;;;;;5337601;26;20091;-78
2024/04/18 10:24:57;;;;;;;10.10;4.05;;;5.40;99.90;;;;;;5336814;26;19996;-78
2024/04/18 10:27:24;;;;;;;6.88;4.03;;;5.40;99.90;;;;;;5366369;26;20001;-78
2024/04/18 10:29:56;;;;;;;6.07;4.20;;;5.40;99.90;;;;;;5367074;26;20007;-78
2024/04/18 10:32:26;;;;;;;4.38;3.97;;;5.40;99.90;;;;;;5332794;26;20000;-78
2024/04/18 10:34:53;;;;;;;4.03;3.60;;;5.40;99.90;;;;;;5327908;26;20024;-78
2024/04/18 10:37:22;;;;;;;5.60;4.00;;;5.40;99.90;;;;;;5354731;26;19997;-78
2024/04/18 10:39:49;;;;;;;4.63;3.80;;;5.40;99.90;;;;;;5322720;26;19996;-78
2024/04/18 10:42:20;;;;;;;5.07;3.45;;;5.40;99.90;;;;;;5308809;26;20010;-78
2024/04/18 10:44:48;;;;;;;5.05;3.17;;;5.30;99.50;;;;;;5304571;27;20042;-78
2024/04/18 10:47:20;;;;;;;5.07;3.75;;;5.30;99.50;;;;;;5286847;26;20014;-78
2024/04/18 10:49:47;;;;;;;6.43;3.60;;;5.30;99.90;;;;;;5285485;26;20013;-78
2024/04/18 10:52:15;;;;;;;4.13;3.63;;;5.20;99.90;;;;;;5283095;27;20069;-78
2024/04/18 10:54:42;;;;;;;4.82;3.17;;;5.20;99.90;;;;;;5302561;27;20014;-78
2024/04/18 10:57:09;;;;;;;3.67;3.35;;;5.10;99.90;;;;;;5303633;27;20002;-78
2024/04/18 10:59:45;;;;;;;4.60;3.38;;;5.10;99.90;;;;;;5309587;27;20002;-78
2024/04/18 11:02:19;;;;;;;5.70;3.85;;;5.00;99.80;;;;;;5309938;26;20009;-78
2024/04/18 11:04:48;;;;;;;4.72;3.47;;;4.80;99.80;;;;;;5290148;27;20005;-78
2024/04/18 11:07:20;;;;;;;5.13;4.07;;;4.80;99.90;;;;;;5292047;27;20069;-78
2024/04/18 11:09:47;;;;;;;3.75;3.28;;;4.70;99.90;;;;;;5320255;26;20005;-78
2024/04/18 11:12:15;;;;;;;5.72;3.65;;;4.70;99.90;;;;;;5290639;27;20017;-78
2024/04/18 11:14:42;;;;;;;9.63;4.63;;;4.60;99.90;;;;;;5289881;27;20013;-78
2024/04/18 11:17:09;;;;;;;5.22;4.00;;;4.60;99.90;;;;;;5310716;26;20079;-78
2024/04/18 11:19:36;;;;;;;6.03;4.32;;;4.50;99.90;;;;;;5305596;27;20067;-78
2024/04/18 11:22:04;;;;;;;5.13;3.95;;;4.50;99.90;;;;;;5285261;27;20073;-78
2024/04/18 11:24:31;;;;;;;4.90;3.55;;;4.60;99.90;;;;;;5276690;27;20423;-78
2024/04/18 11:27:02;;;;;;;3.47;3.10;;;4.70;99.90;;;;;;5278357;27;19998;-78
2024/04/18 11:29:29;;;;;;;3.72;3.20;;;4.70;99.90;;;;;;5279464;27;20009;-78
2024/04/18 11:32:12;;;;;;;3.92;3.40;;;4.80;99.90;;;;;;5293089;26;20010;-78
2024/04/18 11:34:42;;;;;;;3.80;3.40;;;5.00;99.90;;;;;;5313637;26;20003;-78
2024/04/18 11:37:13;;;;;;;3.55;2.83;;;5.10;99.90;;;;;;5307520;27;20030;-78
2024/04/18 11:39:44;;;;;;;5.93;3.63;;;5.40;99.90;;;;;;5308380;27;20013;-78
2024/04/18 11:42:11;;;;;;;4.63;2.58;;;5.70;99.90;;;;;;5320265;26;20309;-78
2024/04/18 11:44:40;;;;;;;2.45;2.22;;;6.00;99.90;;;;;;5342438;26;19997;-78
2024/04/18 11:47:10;;;;;;;2.20;2.00;;;6.20;99.90;;;;;;5335030;26;20021;-78
2024/04/18 11:49:37;;;;;;;2.15;1.80;;;6.40;99.90;;;;;;5330803;26;20353;-78
2024/04/18 11:52:06;;;;;;;2.75;1.85;;;6.50;99.90;;;;;;5318902;26;19997;-79
2024/04/18 11:54:32;;;;;;;2.97;2.00;;;6.60;99.90;;;;;;5336813;26;20073;-79
2024/04/18 11:57:00;;;;;;;2.25;2.03;;;6.50;99.40;;;;;;5338508;26;20016;-79
2024/04/18 11:59:27;;;;;;;2.22;2.03;;;6.50;98.60;;;;;;5318136;26;20006;-79
2024/04/18 12:01:54;;;;;;;3.10;2.55;;;6.50;99.30;;;;;;5321084;26;20314;-78
2024/04/18 12:04:20;;;;;;;1.73;1.63;;;6.60;99.10;;;;;;5327132;26;20309;-79
2024/04/18 12:06:51;;;;;;;1.92;1.80;;;6.60;98.70;;;;;;5315326;26;20035;-78
2024/04/18 12:09:20;;;;;;;2.20;2.00;;;6.70;98.90;;;;;;5327142;26;20361;-78
2024/04/18 12:11:47;;;;;;;2.17;1.65;;;6.80;99.00;;;;;;5319973;26;20002;-78
2024/04/18 12:14:15;;;;;;;2.15;1.77;;;7.00;97.40;;;;;;5342012;26;20275;-78
2024/04/18 12:16:42;;;;;;;2.38;2.08;;;7.10;96.70;;;;;;5323448;26;20010;-78
2024/04/18 12:19:11;;;;;;;1.58;1.48;;;7.40;97.20;;;;;;5332151;26;20397;-78
2024/04/18 12:21:38;;;;;;;2.17;1.80;;;7.70;96.00;;;;;;5328794;26;20084;-78
2024/04/18 12:24:05;;;;;;;2.00;1.77;;;8.10;94.70;;;;;;5325534;26;20001;-78
2024/04/18 12:26:34;;;;;;;2.42;1.80;;;8.30;94.70;;;;;;5329465;26;20023;-78
2024/04/18 12:29:02;;;;;;;2.47;2.13;;;8.60;93.60;;;;;;5331408;26;20056;-78
2024/04/18 12:31:29;;;;;;;2.25;1.80;;;8.80;92.00;;;;;;5336315;26;20013;-78
2024/04/18 12:33:56;;;;;;;4.63;1.45;;;9.00;91.90;;;;;;5340175;26;20005;-78
2024/04/18 12:36:24;;;;;;;2.50;1.58;;;9.30;89.60;;;;;;5313902;26;20005;-79
2024/04/18 12:38:52;;;;;;;1.27;1.17;;;9.50;88.00;;;;;;5310541;26;20008;-78
2024/04/18 12:41:29;;;;;;;1.25;1.15;;;9.60;85.10;;;;;;5312529;26;20013;-78
2024/04/18 12:44:41;;;;;;;1.50;1.40;;;9.60;84.60;;;;;;5349517;26;20413;-78
2024/04/18 12:56:25;;;;;;;2.60;2.00;;;9.50;90.50;;;;;;5004453;28;20024;-78
2024/04/18 13:04:10;;;;;;;;;;;;;;;;;;;;;
2024/04/18 13:32:34;;;;;;;2.55;2.13;;;12.90;68.40;;;;;;5262393;27;20481;-78
2024/04/18 13:40:25;;;;;;;2.85;2.40;;;12.60;68.10;;;;;;5265505;26;20009;-78
2024/04/18 13:48:07;;;;;;;3.63;2.42;;;11.70;72.30;;;;;;5103067;28;20550;-78
2024/04/18 14:05:59;;;;;;;2.15;1.98;;;10.40;75.60;;;;;;5936772;20;33448400;-78
2024/04/18 14:25:23;;;;;;;5.53;3.28;;;8.10;95.20;;;;;;6096612;23;20368;-80
2024/04/18 14:27:52;;;;;;;5.35;4.38;;;8.00;96.00;;;;;;6018602;22;20073;-80